sensor_id;sensor_type;location;lat;lon;timestamp;P1;durP1;ratioP1;P2;durP2;ratioP2
51913;SDS011;37940;53.002;6.930;2022-10-26T00:00:00;30.58;;;15.48;;
51913;SDS011;37940;53.002;6.930;2022-10-26T00:02:26;29.45;;;16.35;;
51913;SDS011;37940;53.002;6.930;2022-10-26T00:04:52;30.90;;;15.88;;
51913;SDS011;37940;53.002;6.930;2022-10-26T00:07:18;24.17;;;15.02;;
51913;SDS011;37940;53.002;6.930;2022-10-26T00:09:46;33.00;;;16.90;;
51913;SDS011;37940;53.002;6.930;2022-10-26T00:12:11;33.35;;;16.42;;
51913;SDS011;37940;53.002;6.930;2022-10-26T00:14:37;30.40;;;16.08;;
51913;SDS011;37940;53.002;6.930;2022-10-26T00:17:03;27.98;;;16.25;;
51913;SDS011;37940;53.002;6.930;2022-10-26T00:19:31;27.80;;;15.75;;
51913;SDS011;37940;53.002;6.930;2022-10-26T00:21:59;29.13;;;16.13;;
51913;SDS011;37940;53.002;6.930;2022-10-26T00:24:25;23.75;;;14.98;;
51913;SDS011;37940;53.002;6.930;2022-10-26T00:26:50;27.90;;;16.35;;
51913;SDS011;37940;53.002;6.930;2022-10-26T00:29:16;30.42;;;16.15;;
51913;SDS011;37940;53.002;6.930;2022-10-26T00:31:42;32.72;;;15.75;;
51913;SDS011;37940;53.002;6.930;2022-10-26T00:34:09;26.17;;;15.63;;
51913;SDS011;37940;53.002;6.930;2022-10-26T00:36:35;30.05;;;16.48;;
51913;SDS011;37940;53.002;6.930;2022-10-26T00:39:01;29.52;;;15.25;;
51913;SDS011;37940;53.002;6.930;2022-10-26T00:41:29;30.92;;;16.40;;
51913;SDS011;37940;53.002;6.930;2022-10-26T00:43:56;31.73;;;15.82;;
51913;SDS011;37940;53.002;6.930;2022-10-26T00:46:23;29.15;;;16.65;;
51913;SDS011;37940;53.002;6.930;2022-10-26T00:49:07;27.90;;;15.45;;
51913;SDS011;37940;53.002;6.930;2022-10-26T00:51:37;31.88;;;15.57;;
51913;SDS011;37940;53.002;6.930;2022-10-26T00:54:10;27.00;;;14.93;;
51913;SDS011;37940;53.002;6.930;2022-10-26T00:56:42;28.58;;;16.08;;
51913;SDS011;37940;53.002;6.930;2022-10-26T00:59:14;24.48;;;14.23;;
51913;SDS011;37940;53.002;6.930;2022-10-26T01:01:42;26.35;;;15.95;;
51913;SDS011;37940;53.002;6.930;2022-10-26T01:04:09;32.90;;;15.45;;
51913;SDS011;37940;53.002;6.930;2022-10-26T01:06:37;29.65;;;14.88;;
51913;SDS011;37940;53.002;6.930;2022-10-26T01:09:04;23.88;;;14.43;;
51913;SDS011;37940;53.002;6.930;2022-10-26T01:11:30;26.23;;;14.75;;
51913;SDS011;37940;53.002;6.930;2022-10-26T01:13:56;28.98;;;14.95;;
51913;SDS011;37940;53.002;6.930;2022-10-26T01:30:22;25.08;;;14.40;;
51913;SDS011;37940;53.002;6.930;2022-10-26T01:35:37;29.42;;;15.45;;
51913;SDS011;37940;53.002;6.930;2022-10-26T01:38:25;34.35;;;15.77;;
51913;SDS011;37940;53.002;6.930;2022-10-26T01:41:04;27.90;;;15.25;;
51913;SDS011;37940;53.002;6.930;2022-10-26T01:43:39;27.10;;;14.65;;
51913;SDS011;37940;53.002;6.930;2022-10-26T01:46:10;30.00;;;15.55;;
51913;SDS011;37940;53.002;6.930;2022-10-26T01:48:37;31.70;;;15.75;;
51913;SDS011;37940;53.002;6.930;2022-10-26T01:51:05;26.05;;;15.93;;
51913;SDS011;37940;53.002;6.930;2022-10-26T01:53:33;27.35;;;15.70;;
51913;SDS011;37940;53.002;6.930;2022-10-26T01:55:58;27.55;;;15.98;;
51913;SDS011;37940;53.002;6.930;2022-10-26T02:07:02;28.77;;;15.10;;
51913;SDS011;37940;53.002;6.930;2022-10-26T02:15:21;38.85;;;17.85;;
51913;SDS011;37940;53.002;6.930;2022-10-26T02:18:06;30.02;;;17.73;;
51913;SDS011;37940;53.002;6.930;2022-10-26T02:20:56;28.92;;;16.15;;
51913;SDS011;37940;53.002;6.930;2022-10-26T02:23:27;28.63;;;17.38;;
51913;SDS011;37940;53.002;6.930;2022-10-26T02:25:55;32.60;;;17.73;;
51913;SDS011;37940;53.002;6.930;2022-10-26T02:28:28;30.55;;;17.60;;
51913;SDS011;37940;53.002;6.930;2022-10-26T02:30:58;31.42;;;18.42;;
51913;SDS011;37940;53.002;6.930;2022-10-26T02:33:28;39.58;;;19.52;;
51913;SDS011;37940;53.002;6.930;2022-10-26T02:35:58;31.27;;;18.35;;
51913;SDS011;37940;53.002;6.930;2022-10-26T02:38:27;35.60;;;18.90;;
51913;SDS011;37940;53.002;6.930;2022-10-26T02:40:56;37.45;;;18.55;;
51913;SDS011;37940;53.002;6.930;2022-10-26T02:43:23;40.75;;;20.77;;
51913;SDS011;37940;53.002;6.930;2022-10-26T02:45:55;40.67;;;19.33;;
51913;SDS011;37940;53.002;6.930;2022-10-26T02:48:26;35.67;;;18.75;;
51913;SDS011;37940;53.002;6.930;2022-10-26T02:51:15;41.25;;;20.50;;
51913;SDS011;37940;53.002;6.930;2022-10-26T02:56:44;33.75;;;19.73;;
51913;SDS011;37940;53.002;6.930;2022-10-26T02:59:16;39.20;;;20.27;;
51913;SDS011;37940;53.002;6.930;2022-10-26T03:01:44;37.47;;;19.42;;
51913;SDS011;37940;53.002;6.930;2022-10-26T03:04:10;40.30;;;20.88;;
51913;SDS011;37940;53.002;6.930;2022-10-26T03:06:36;43.67;;;21.05;;
51913;SDS011;37940;53.002;6.930;2022-10-26T03:09:02;35.60;;;20.73;;
51913;SDS011;37940;53.002;6.930;2022-10-26T03:11:28;44.08;;;21.40;;
51913;SDS011;37940;53.002;6.930;2022-10-26T03:13:53;48.25;;;23.70;;
51913;SDS011;37940;53.002;6.930;2022-10-26T03:16:19;39.55;;;22.02;;
51913;SDS011;37940;53.002;6.930;2022-10-26T03:18:45;46.53;;;23.45;;
51913;SDS011;37940;53.002;6.930;2022-10-26T03:21:10;50.88;;;24.45;;
51913;SDS011;37940;53.002;6.930;2022-10-26T03:23:36;51.05;;;22.95;;
51913;SDS011;37940;53.002;6.930;2022-10-26T03:26:02;46.15;;;23.88;;
51913;SDS011;37940;53.002;6.930;2022-10-26T03:28:27;48.50;;;24.95;;
51913;SDS011;37940;53.002;6.930;2022-10-26T03:30:53;57.13;;;26.73;;
51913;SDS011;37940;53.002;6.930;2022-10-26T03:33:19;53.78;;;27.15;;
51913;SDS011;37940;53.002;6.930;2022-10-26T03:35:44;68.63;;;26.85;;
51913;SDS011;37940;53.002;6.930;2022-10-26T03:38:10;64.32;;;27.00;;
51913;SDS011;37940;53.002;6.930;2022-10-26T03:40:36;56.83;;;26.65;;
51913;SDS011;37940;53.002;6.930;2022-10-26T03:43:02;53.75;;;25.25;;
51913;SDS011;37940;53.002;6.930;2022-10-26T03:45:27;65.32;;;28.40;;
51913;SDS011;37940;53.002;6.930;2022-10-26T03:47:53;51.65;;;26.23;;
51913;SDS011;37940;53.002;6.930;2022-10-26T03:50:19;51.10;;;25.73;;
51913;SDS011;37940;53.002;6.930;2022-10-26T03:52:46;55.58;;;27.58;;
51913;SDS011;37940;53.002;6.930;2022-10-26T03:55:13;50.80;;;25.55;;
51913;SDS011;37940;53.002;6.930;2022-10-26T03:57:39;60.58;;;27.80;;
51913;SDS011;37940;53.002;6.930;2022-10-26T04:00:06;54.15;;;26.42;;
51913;SDS011;37940;53.002;6.930;2022-10-26T04:02:32;53.10;;;26.83;;
51913;SDS011;37940;53.002;6.930;2022-10-26T04:04:58;55.47;;;26.75;;
51913;SDS011;37940;53.002;6.930;2022-10-26T04:07:23;50.00;;;23.80;;
51913;SDS011;37940;53.002;6.930;2022-10-26T04:09:49;50.53;;;26.38;;
51913;SDS011;37940;53.002;6.930;2022-10-26T04:12:15;54.63;;;26.10;;
51913;SDS011;37940;53.002;6.930;2022-10-26T04:14:40;48.05;;;24.70;;
51913;SDS011;37940;53.002;6.930;2022-10-26T04:17:06;48.95;;;25.00;;
51913;SDS011;37940;53.002;6.930;2022-10-26T04:19:32;47.20;;;24.05;;
51913;SDS011;37940;53.002;6.930;2022-10-26T04:21:57;49.95;;;24.98;;
51913;SDS011;37940;53.002;6.930;2022-10-26T04:24:23;45.10;;;23.70;;
51913;SDS011;37940;53.002;6.930;2022-10-26T04:26:48;55.03;;;25.25;;
51913;SDS011;37940;53.002;6.930;2022-10-26T04:29:14;51.60;;;24.85;;
51913;SDS011;37940;53.002;6.930;2022-10-26T04:31:40;50.13;;;23.95;;
51913;SDS011;37940;53.002;6.930;2022-10-26T04:34:06;43.70;;;23.15;;
51913;SDS011;37940;53.002;6.930;2022-10-26T04:36:32;47.30;;;24.42;;
51913;SDS011;37940;53.002;6.930;2022-10-26T04:38:59;40.35;;;23.60;;
51913;SDS011;37940;53.002;6.930;2022-10-26T04:41:24;45.80;;;23.73;;
51913;SDS011;37940;53.002;6.930;2022-10-26T04:43:50;43.95;;;22.42;;
51913;SDS011;37940;53.002;6.930;2022-10-26T04:46:16;49.05;;;24.00;;
51913;SDS011;37940;53.002;6.930;2022-10-26T04:48:42;44.47;;;22.40;;
51913;SDS011;37940;53.002;6.930;2022-10-26T04:51:07;47.40;;;22.63;;
51913;SDS011;37940;53.002;6.930;2022-10-26T04:53:33;43.22;;;22.17;;
51913;SDS011;37940;53.002;6.930;2022-10-26T04:55:59;44.33;;;21.63;;
51913;SDS011;37940;53.002;6.930;2022-10-26T04:58:26;44.90;;;23.30;;
51913;SDS011;37940;53.002;6.930;2022-10-26T05:00:52;39.55;;;21.48;;
51913;SDS011;37940;53.002;6.930;2022-10-26T05:03:19;42.80;;;22.05;;
51913;SDS011;37940;53.002;6.930;2022-10-26T05:05:45;42.80;;;22.42;;
51913;SDS011;37940;53.002;6.930;2022-10-26T05:08:12;42.72;;;22.63;;
51913;SDS011;37940;53.002;6.930;2022-10-26T05:10:38;37.10;;;20.65;;
51913;SDS011;37940;53.002;6.930;2022-10-26T05:13:04;41.83;;;21.80;;
51913;SDS011;37940;53.002;6.930;2022-10-26T05:15:30;40.45;;;21.55;;
51913;SDS011;37940;53.002;6.930;2022-10-26T05:20:27;37.95;;;20.90;;
51913;SDS011;37940;53.002;6.930;2022-10-26T05:22:56;40.80;;;20.60;;
51913;SDS011;37940;53.002;6.930;2022-10-26T05:25:22;36.25;;;20.55;;
51913;SDS011;37940;53.002;6.930;2022-10-26T05:27:49;34.40;;;19.90;;
51913;SDS011;37940;53.002;6.930;2022-10-26T05:30:14;38.38;;;20.75;;
51913;SDS011;37940;53.002;6.930;2022-10-26T05:32:40;38.78;;;19.58;;
51913;SDS011;37940;53.002;6.930;2022-10-26T05:35:06;34.35;;;18.30;;
51913;SDS011;37940;53.002;6.930;2022-10-26T05:37:32;34.05;;;19.23;;
51913;SDS011;37940;53.002;6.930;2022-10-26T05:39:57;35.38;;;18.58;;
51913;SDS011;37940;53.002;6.930;2022-10-26T05:42:23;33.65;;;18.67;;
51913;SDS011;37940;53.002;6.930;2022-10-26T05:44:49;30.70;;;17.90;;
51913;SDS011;37940;53.002;6.930;2022-10-26T05:47:15;35.72;;;18.13;;
51913;SDS011;37940;53.002;6.930;2022-10-26T05:49:41;29.38;;;18.65;;
51913;SDS011;37940;53.002;6.930;2022-10-26T05:52:06;33.70;;;18.20;;
51913;SDS011;37940;53.002;6.930;2022-10-26T05:54:32;32.33;;;18.08;;
51913;SDS011;37940;53.002;6.930;2022-10-26T05:56:58;32.40;;;17.90;;
51913;SDS011;37940;53.002;6.930;2022-10-26T05:59:24;30.80;;;16.65;;
51913;SDS011;37940;53.002;6.930;2022-10-26T06:06:56;28.48;;;17.23;;
51913;SDS011;37940;53.002;6.930;2022-10-26T06:09:23;27.88;;;16.00;;
51913;SDS011;37940;53.002;6.930;2022-10-26T06:11:49;25.35;;;15.82;;
51913;SDS011;37940;53.002;6.930;2022-10-26T06:14:15;29.50;;;16.05;;
51913;SDS011;37940;53.002;6.930;2022-10-26T06:16:57;27.60;;;15.27;;
51913;SDS011;37940;53.002;6.930;2022-10-26T06:20:04;28.35;;;15.60;;
51913;SDS011;37940;53.002;6.930;2022-10-26T06:22:41;22.88;;;13.70;;
51913;SDS011;37940;53.002;6.930;2022-10-26T06:25:36;22.13;;;14.38;;
51913;SDS011;37940;53.002;6.930;2022-10-26T06:30:55;25.75;;;14.55;;
51913;SDS011;37940;53.002;6.930;2022-10-26T06:33:22;24.27;;;14.82;;
51913;SDS011;37940;53.002;6.930;2022-10-26T06:38:39;25.40;;;13.50;;
51913;SDS011;37940;53.002;6.930;2022-10-26T06:41:08;23.33;;;13.75;;
51913;SDS011;37940;53.002;6.930;2022-10-26T06:43:38;17.45;;;12.45;;
51913;SDS011;37940;53.002;6.930;2022-10-26T06:46:12;19.73;;;13.30;;
51913;SDS011;37940;53.002;6.930;2022-10-26T06:51:54;20.60;;;12.73;;
51913;SDS011;37940;53.002;6.930;2022-10-26T06:57:16;19.77;;;10.70;;
51913;SDS011;37940;53.002;6.930;2022-10-26T07:02:15;15.93;;;10.85;;
51913;SDS011;37940;53.002;6.930;2022-10-26T07:04:41;18.85;;;9.57;;
51913;SDS011;37940;53.002;6.930;2022-10-26T07:07:07;17.25;;;9.98;;
51913;SDS011;37940;53.002;6.930;2022-10-26T07:09:38;15.88;;;9.85;;
51913;SDS011;37940;53.002;6.930;2022-10-26T07:12:04;14.38;;;9.23;;
51913;SDS011;37940;53.002;6.930;2022-10-26T07:14:30;19.77;;;9.57;;
51913;SDS011;37940;53.002;6.930;2022-10-26T07:16:55;14.73;;;8.70;;
51913;SDS011;37940;53.002;6.930;2022-10-26T07:19:21;15.10;;;9.45;;
51913;SDS011;37940;53.002;6.930;2022-10-26T07:21:47;16.48;;;9.40;;
51913;SDS011;37940;53.002;6.930;2022-10-26T07:24:13;13.98;;;8.02;;
51913;SDS011;37940;53.002;6.930;2022-10-26T07:26:39;16.27;;;8.10;;
51913;SDS011;37940;53.002;6.930;2022-10-26T07:29:05;16.85;;;7.80;;
51913;SDS011;37940;53.002;6.930;2022-10-26T07:31:30;15.35;;;8.52;;
51913;SDS011;37940;53.002;6.930;2022-10-26T07:33:56;13.90;;;8.82;;
51913;SDS011;37940;53.002;6.930;2022-10-26T07:36:22;12.40;;;8.52;;
51913;SDS011;37940;53.002;6.930;2022-10-26T07:38:50;19.50;;;8.80;;
51913;SDS011;37940;53.002;6.930;2022-10-26T07:41:17;13.68;;;8.15;;
51913;SDS011;37940;53.002;6.930;2022-10-26T07:43:43;14.45;;;8.73;;
51913;SDS011;37940;53.002;6.930;2022-10-26T07:46:14;13.50;;;7.57;;
51913;SDS011;37940;53.002;6.930;2022-10-26T07:48:41;14.98;;;8.23;;
51913;SDS011;37940;53.002;6.930;2022-10-26T07:51:07;14.50;;;8.00;;
51913;SDS011;37940;53.002;6.930;2022-10-26T07:53:33;16.63;;;8.13;;
51913;SDS011;37940;53.002;6.930;2022-10-26T07:55:58;12.27;;;7.32;;
51913;SDS011;37940;53.002;6.930;2022-10-26T07:58:24;10.85;;;6.65;;
51913;SDS011;37940;53.002;6.930;2022-10-26T08:00:53;12.27;;;7.32;;
51913;SDS011;37940;53.002;6.930;2022-10-26T08:03:19;11.90;;;6.72;;
51913;SDS011;37940;53.002;6.930;2022-10-26T08:05:45;9.48;;;6.70;;
51913;SDS011;37940;53.002;6.930;2022-10-26T08:08:15;13.40;;;7.10;;
51913;SDS011;37940;53.002;6.930;2022-10-26T08:10:45;9.75;;;6.18;;
51913;SDS011;37940;53.002;6.930;2022-10-26T08:13:12;16.20;;;6.25;;
51913;SDS011;37940;53.002;6.930;2022-10-26T08:15:38;8.95;;;5.95;;
51913;SDS011;37940;53.002;6.930;2022-10-26T08:18:04;11.77;;;6.15;;
51913;SDS011;37940;53.002;6.930;2022-10-26T08:20:30;10.55;;;6.03;;
51913;SDS011;37940;53.002;6.930;2022-10-26T08:22:56;12.82;;;5.88;;
51913;SDS011;37940;53.002;6.930;2022-10-26T08:25:22;7.65;;;5.25;;
51913;SDS011;37940;53.002;6.930;2022-10-26T08:27:48;10.90;;;5.32;;
51913;SDS011;37940;53.002;6.930;2022-10-26T08:30:14;11.40;;;5.93;;
51913;SDS011;37940;53.002;6.930;2022-10-26T08:32:41;10.38;;;5.40;;
51913;SDS011;37940;53.002;6.930;2022-10-26T08:35:09;13.07;;;5.05;;
51913;SDS011;37940;53.002;6.930;2022-10-26T08:37:35;7.95;;;4.90;;
51913;SDS011;37940;53.002;6.930;2022-10-26T08:40:02;8.45;;;5.07;;
51913;SDS011;37940;53.002;6.930;2022-10-26T08:42:39;11.60;;;4.90;;
51913;SDS011;37940;53.002;6.930;2022-10-26T08:45:43;11.18;;;5.05;;
51913;SDS011;37940;53.002;6.930;2022-10-26T08:48:14;8.52;;;5.28;;
51913;SDS011;37940;53.002;6.930;2022-10-26T08:50:50;9.63;;;5.40;;
51913;SDS011;37940;53.002;6.930;2022-10-26T08:53:24;10.15;;;5.18;;
51913;SDS011;37940;53.002;6.930;2022-10-26T08:56:03;9.98;;;5.00;;
51913;SDS011;37940;53.002;6.930;2022-10-26T08:58:39;11.25;;;4.75;;
51913;SDS011;37940;53.002;6.930;2022-10-26T09:01:11;10.40;;;4.63;;
51913;SDS011;37940;53.002;6.930;2022-10-26T09:03:36;8.32;;;5.03;;
51913;SDS011;37940;53.002;6.930;2022-10-26T09:17:07;9.27;;;4.65;;
51913;SDS011;37940;53.002;6.930;2022-10-26T09:24:55;10.32;;;4.40;;
51913;SDS011;37940;53.002;6.930;2022-10-26T09:27:26;9.20;;;4.47;;
51913;SDS011;37940;53.002;6.930;2022-10-26T09:29:54;10.57;;;4.70;;
51913;SDS011;37940;53.002;6.930;2022-10-26T09:32:28;10.27;;;4.13;;
51913;SDS011;37940;53.002;6.930;2022-10-26T09:35:14;9.75;;;4.20;;
51913;SDS011;37940;53.002;6.930;2022-10-26T09:37:46;5.85;;;3.92;;
51913;SDS011;37940;53.002;6.930;2022-10-26T09:42:53;10.27;;;4.22;;
51913;SDS011;37940;53.002;6.930;2022-10-26T09:45:30;8.90;;;3.88;;
51913;SDS011;37940;53.002;6.930;2022-10-26T09:51:00;10.02;;;4.13;;
51913;SDS011;37940;53.002;6.930;2022-10-26T09:53:27;7.97;;;3.67;;
51913;SDS011;37940;53.002;6.930;2022-10-26T09:56:00;6.80;;;3.63;;
51913;SDS011;37940;53.002;6.930;2022-10-26T09:58:30;10.95;;;3.67;;
51913;SDS011;37940;53.002;6.930;2022-10-26T10:00:59;7.50;;;3.88;;
51913;SDS011;37940;53.002;6.930;2022-10-26T10:03:26;9.00;;;3.63;;
51913;SDS011;37940;53.002;6.930;2022-10-26T10:06:12;5.45;;;3.50;;
51913;SDS011;37940;53.002;6.930;2022-10-26T10:08:40;7.93;;;3.63;;
51913;SDS011;37940;53.002;6.930;2022-10-26T10:11:07;8.27;;;4.03;;
51913;SDS011;37940;53.002;6.930;2022-10-26T10:13:36;7.00;;;3.75;;
51913;SDS011;37940;53.002;6.930;2022-10-26T10:16:04;6.75;;;3.75;;
51913;SDS011;37940;53.002;6.930;2022-10-26T10:18:38;10.18;;;3.63;;
51913;SDS011;37940;53.002;6.930;2022-10-26T10:21:05;6.03;;;3.33;;
51913;SDS011;37940;53.002;6.930;2022-10-26T10:23:37;7.05;;;3.20;;
51913;SDS011;37940;53.002;6.930;2022-10-26T10:26:16;8.68;;;3.28;;
51913;SDS011;37940;53.002;6.930;2022-10-26T10:28:42;6.60;;;2.92;;
51913;SDS011;37940;53.002;6.930;2022-10-26T10:31:21;7.63;;;2.97;;
51913;SDS011;37940;53.002;6.930;2022-10-26T10:33:51;7.15;;;3.08;;
51913;SDS011;37940;53.002;6.930;2022-10-26T10:36:19;4.95;;;2.70;;
51913;SDS011;37940;53.002;6.930;2022-10-26T10:38:47;6.50;;;2.90;;
51913;SDS011;37940;53.002;6.930;2022-10-26T10:41:16;6.78;;;3.10;;
51913;SDS011;37940;53.002;6.930;2022-10-26T10:43:46;8.20;;;2.90;;
51913;SDS011;37940;53.002;6.930;2022-10-26T10:46:17;7.22;;;2.90;;
51913;SDS011;37940;53.002;6.930;2022-10-26T10:48:46;9.50;;;2.83;;
51913;SDS011;37940;53.002;6.930;2022-10-26T10:51:20;5.53;;;2.72;;
51913;SDS011;37940;53.002;6.930;2022-10-26T10:53:50;6.35;;;2.95;;
51913;SDS011;37940;53.002;6.930;2022-10-26T11:04:55;8.27;;;3.17;;
51913;SDS011;37940;53.002;6.930;2022-10-26T11:07:21;5.05;;;2.70;;
51913;SDS011;37940;53.002;6.930;2022-10-26T11:09:49;5.75;;;2.72;;
51913;SDS011;37940;53.002;6.930;2022-10-26T11:12:18;6.50;;;2.90;;
51913;SDS011;37940;53.002;6.930;2022-10-26T11:15:02;8.50;;;2.72;;
51913;SDS011;37940;53.002;6.930;2022-10-26T11:17:41;7.28;;;2.65;;
51913;SDS011;37940;53.002;6.930;2022-10-26T11:20:20;4.65;;;2.67;;
51913;SDS011;37940;53.002;6.930;2022-10-26T11:25:18;10.05;;;2.60;;
51913;SDS011;37940;53.002;6.930;2022-10-26T11:28:04;6.85;;;2.70;;
51913;SDS011;37940;53.002;6.930;2022-10-26T11:30:46;7.07;;;2.65;;
51913;SDS011;37940;53.002;6.930;2022-10-26T11:33:21;6.97;;;2.67;;
51913;SDS011;37940;53.002;6.930;2022-10-26T11:35:55;8.27;;;2.75;;
51913;SDS011;37940;53.002;6.930;2022-10-26T11:38:32;9.15;;;2.72;;
51913;SDS011;37940;53.002;6.930;2022-10-26T11:41:07;7.03;;;2.80;;
51913;SDS011;37940;53.002;6.930;2022-10-26T11:43:37;5.78;;;2.60;;
51913;SDS011;37940;53.002;6.930;2022-10-26T11:56:57;6.47;;;2.70;;
51913;SDS011;37940;53.002;6.930;2022-10-26T11:59:25;5.07;;;2.60;;
51913;SDS011;37940;53.002;6.930;2022-10-26T12:01:55;5.88;;;2.70;;
51913;SDS011;37940;53.002;6.930;2022-10-26T12:04:27;9.52;;;3.03;;
51913;SDS011;37940;53.002;6.930;2022-10-26T12:06:57;9.27;;;2.70;;
51913;SDS011;37940;53.002;6.930;2022-10-26T12:09:31;7.20;;;2.80;;
51913;SDS011;37940;53.002;6.930;2022-10-26T12:14:43;5.47;;;2.80;;
51913;SDS011;37940;53.002;6.930;2022-10-26T12:17:20;7.30;;;3.20;;
51913;SDS011;37940;53.002;6.930;2022-10-26T12:22:51;6.55;;;3.17;;
51913;SDS011;37940;53.002;6.930;2022-10-26T12:25:18;7.53;;;2.80;;
51913;SDS011;37940;53.002;6.930;2022-10-26T12:35:03;9.40;;;3.28;;
51913;SDS011;37940;53.002;6.930;2022-10-26T12:37:53;4.80;;;2.90;;
51913;SDS011;37940;53.002;6.930;2022-10-26T12:45:38;8.80;;;2.80;;
51913;SDS011;37940;53.002;6.930;2022-10-26T12:48:21;9.00;;;3.10;;
51913;SDS011;37940;53.002;6.930;2022-10-26T12:56:55;8.43;;;2.67;;
51913;SDS011;37940;53.002;6.930;2022-10-26T13:07:38;6.47;;;2.67;;
51913;SDS011;37940;53.002;6.930;2022-10-26T13:12:37;6.90;;;2.90;;
51913;SDS011;37940;53.002;6.930;2022-10-26T13:15:19;8.48;;;2.90;;
51913;SDS011;37940;53.002;6.930;2022-10-26T13:17:56;7.22;;;3.13;;
51913;SDS011;37940;53.002;6.930;2022-10-26T13:20:31;6.38;;;3.17;;
51913;SDS011;37940;53.002;6.930;2022-10-26T13:23:00;7.68;;;3.08;;
51913;SDS011;37940;53.002;6.930;2022-10-26T13:25:28;6.28;;;2.90;;
51913;SDS011;37940;53.002;6.930;2022-10-26T13:27:56;10.77;;;3.30;;
51913;SDS011;37940;53.002;6.930;2022-10-26T13:30:44;9.13;;;3.00;;
51913;SDS011;37940;53.002;6.930;2022-10-26T13:33:14;7.60;;;3.30;;
51913;SDS011;37940;53.002;6.930;2022-10-26T13:35:44;6.07;;;2.80;;
51913;SDS011;37940;53.002;6.930;2022-10-26T13:38:10;6.05;;;2.60;;
51913;SDS011;37940;53.002;6.930;2022-10-26T13:40:42;7.80;;;2.90;;
51913;SDS011;37940;53.002;6.930;2022-10-26T13:43:11;6.60;;;3.15;;
51913;SDS011;37940;53.002;6.930;2022-10-26T13:48:41;8.23;;;3.40;;
51913;SDS011;37940;53.002;6.930;2022-10-26T13:51:15;8.20;;;3.20;;
51913;SDS011;37940;53.002;6.930;2022-10-26T13:53:53;10.68;;;3.78;;
51913;SDS011;37940;53.002;6.930;2022-10-26T13:56:26;6.10;;;3.20;;
51913;SDS011;37940;53.002;6.930;2022-10-26T13:58:56;7.20;;;3.35;;
51913;SDS011;37940;53.002;6.930;2022-10-26T14:01:28;7.38;;;3.22;;
51913;SDS011;37940;53.002;6.930;2022-10-26T14:03:54;8.60;;;3.33;;
51913;SDS011;37940;53.002;6.930;2022-10-26T14:09:02;10.65;;;3.50;;
51913;SDS011;37940;53.002;6.930;2022-10-26T14:11:33;6.60;;;3.50;;
51913;SDS011;37940;53.002;6.930;2022-10-26T14:14:10;11.88;;;3.42;;
51913;SDS011;37940;53.002;6.930;2022-10-26T14:16:53;7.90;;;3.33;;
51913;SDS011;37940;53.002;6.930;2022-10-26T14:19:25;8.88;;;3.90;;
51913;SDS011;37940;53.002;6.930;2022-10-26T14:21:53;7.65;;;3.30;;
51913;SDS011;37940;53.002;6.930;2022-10-26T14:24:26;8.05;;;3.10;;
51913;SDS011;37940;53.002;6.930;2022-10-26T14:26:53;8.38;;;3.20;;
51913;SDS011;37940;53.002;6.930;2022-10-26T14:29:20;6.28;;;3.58;;
51913;SDS011;37940;53.002;6.930;2022-10-26T14:31:49;10.45;;;3.30;;
51913;SDS011;37940;53.002;6.930;2022-10-26T14:34:15;7.68;;;3.28;;
51913;SDS011;37940;53.002;6.930;2022-10-26T14:36:59;12.20;;;3.65;;
51913;SDS011;37940;53.002;6.930;2022-10-26T14:39:31;8.95;;;3.65;;
51913;SDS011;37940;53.002;6.930;2022-10-26T14:45:04;7.32;;;3.30;;
51913;SDS011;37940;53.002;6.930;2022-10-26T14:47:31;9.57;;;3.65;;
51913;SDS011;37940;53.002;6.930;2022-10-26T14:49:59;8.10;;;3.60;;
51913;SDS011;37940;53.002;6.930;2022-10-26T14:52:27;7.22;;;3.30;;
51913;SDS011;37940;53.002;6.930;2022-10-26T14:54:59;12.80;;;3.85;;
51913;SDS011;37940;53.002;6.930;2022-10-26T14:57:37;13.43;;;4.13;;
51913;SDS011;37940;53.002;6.930;2022-10-26T15:02:37;7.25;;;3.70;;
51913;SDS011;37940;53.002;6.930;2022-10-26T15:05:15;10.30;;;3.83;;
51913;SDS011;37940;53.002;6.930;2022-10-26T15:07:49;9.57;;;3.53;;
51913;SDS011;37940;53.002;6.930;2022-10-26T15:18:44;8.07;;;3.60;;
51913;SDS011;37940;53.002;6.930;2022-10-26T15:23:46;11.77;;;4.40;;
51913;SDS011;37940;53.002;6.930;2022-10-26T15:26:12;9.82;;;4.20;;
51913;SDS011;37940;53.002;6.930;2022-10-26T15:28:39;8.15;;;3.97;;
51913;SDS011;37940;53.002;6.930;2022-10-26T15:33:42;8.32;;;4.38;;
51913;SDS011;37940;53.002;6.930;2022-10-26T15:36:29;8.43;;;4.35;;
51913;SDS011;37940;53.002;6.930;2022-10-26T15:38:56;7.30;;;4.05;;
51913;SDS011;37940;53.002;6.930;2022-10-26T15:41:30;10.60;;;4.25;;
51913;SDS011;37940;53.002;6.930;2022-10-26T15:43:58;8.68;;;4.13;;
51913;SDS011;37940;53.002;6.930;2022-10-26T15:46:30;9.05;;;4.68;;
51913;SDS011;37940;53.002;6.930;2022-10-26T15:49:00;10.98;;;4.70;;
51913;SDS011;37940;53.002;6.930;2022-10-26T15:51:28;10.02;;;4.53;;
51913;SDS011;37940;53.002;6.930;2022-10-26T15:53:56;9.70;;;4.63;;
51913;SDS011;37940;53.002;6.930;2022-10-26T15:56:23;7.03;;;4.05;;
51913;SDS011;37940;53.002;6.930;2022-10-26T15:58:52;9.68;;;4.80;;
51913;SDS011;37940;53.002;6.930;2022-10-26T16:01:23;10.18;;;4.60;;
51913;SDS011;37940;53.002;6.930;2022-10-26T16:03:50;9.23;;;4.30;;
51913;SDS011;37940;53.002;6.930;2022-10-26T16:08:56;10.73;;;4.78;;
51913;SDS011;37940;53.002;6.930;2022-10-26T16:11:25;9.75;;;4.63;;
51913;SDS011;37940;53.002;6.930;2022-10-26T16:14:23;10.40;;;5.15;;
51913;SDS011;37940;53.002;6.930;2022-10-26T16:16:49;10.73;;;4.82;;
51913;SDS011;37940;53.002;6.930;2022-10-26T16:19:15;7.18;;;4.63;;
51913;SDS011;37940;53.002;6.930;2022-10-26T16:21:41;11.10;;;5.28;;
51913;SDS011;37940;53.002;6.930;2022-10-26T16:24:06;11.55;;;5.72;;
51913;SDS011;37940;53.002;6.930;2022-10-26T16:26:33;7.95;;;4.82;;
51913;SDS011;37940;53.002;6.930;2022-10-26T16:28:59;9.10;;;5.75;;
51913;SDS011;37940;53.002;6.930;2022-10-26T16:31:24;10.73;;;5.75;;
51913;SDS011;37940;53.002;6.930;2022-10-26T16:33:50;14.60;;;5.80;;
51913;SDS011;37940;53.002;6.930;2022-10-26T16:36:16;12.98;;;6.63;;
51913;SDS011;37940;53.002;6.930;2022-10-26T16:38:41;11.65;;;5.95;;
51913;SDS011;37940;53.002;6.930;2022-10-26T16:41:11;8.95;;;6.53;;
51913;SDS011;37940;53.002;6.930;2022-10-26T16:43:39;10.18;;;6.15;;
51913;SDS011;37940;53.002;6.930;2022-10-26T16:46:16;11.75;;;6.90;;
51913;SDS011;37940;53.002;6.930;2022-10-26T16:48:45;9.80;;;6.57;;
51913;SDS011;37940;53.002;6.930;2022-10-26T16:51:14;12.40;;;8.15;;
51913;SDS011;37940;53.002;6.930;2022-10-26T16:53:41;11.35;;;9.15;;
51913;SDS011;37940;53.002;6.930;2022-10-26T16:56:11;12.40;;;8.30;;
51913;SDS011;37940;53.002;6.930;2022-10-26T16:58:38;14.80;;;8.18;;
51913;SDS011;37940;53.002;6.930;2022-10-26T17:01:05;11.32;;;6.93;;
51913;SDS011;37940;53.002;6.930;2022-10-26T17:03:32;11.75;;;8.20;;
51913;SDS011;37940;53.002;6.930;2022-10-26T17:05:58;13.30;;;7.78;;
51913;SDS011;37940;53.002;6.930;2022-10-26T17:08:25;11.63;;;7.40;;
51913;SDS011;37940;53.002;6.930;2022-10-26T17:10:52;8.95;;;7.45;;
51913;SDS011;37940;53.002;6.930;2022-10-26T17:13:19;13.05;;;7.10;;
51913;SDS011;37940;53.002;6.930;2022-10-26T17:15:45;11.00;;;7.47;;
51913;SDS011;37940;53.002;6.930;2022-10-26T17:18:11;9.27;;;7.10;;
51913;SDS011;37940;53.002;6.930;2022-10-26T17:20:37;10.95;;;7.40;;
51913;SDS011;37940;53.002;6.930;2022-10-26T17:23:03;8.73;;;6.80;;
51913;SDS011;37940;53.002;6.930;2022-10-26T17:25:32;15.18;;;7.55;;
51913;SDS011;37940;53.002;6.930;2022-10-26T17:27:59;12.50;;;7.35;;